Midway, Texas
Current Conditions -  °F | °C
As of 4:53 AM on Friday 19 Dec 2014 (Local Time) from KUTS Reporting Station
Overcast Overcast  
Wind Chill: 53°   Ceiling: 500
Heat Index: 53°   Visibility: 9mi
Dew Point: 51°   Wind: 6mph
Humidity: 93%   Direction: 60°ENE
Pressure: 30.03"   Gusts: NA
Location:  31.03°N, 95.75°W
Report Text: KUTS 191053Z AUTO 06005KT 9SM OVC005 12/11 A3003 RMK AO2 RAE50 SLP166 P0005 T01170106
Loading
Personal Weather Stations






























Interactive Weather Map New forecast layout! Learn more

10-Day Weather Forecast

Advertisements
Track Severe Weather on mobile